Time;durP1;ratioP1;P1;durP2;ratioP2;P2;SDS_P1;SDS_P2;PMS_P1;PMS_P2;Temp;Humidity;BMP_temperature;BMP_pressure;BME280_temperature;BME280_humidity;BME280_pressure;Samples;Min_cycle;Max_cycle;Signal;HPM_P1;HPM_P2
2022/04/22 00:01:40;;;;;;;64.35;36.90;;;;;;;10.36;76.09;99839.03;5091722;28;20028;-75
2022/04/22 00:04:05;;;;;;;70.38;39.22;;;;;;;10.41;76.34;99840.44;5073722;28;20446;-76
2022/04/22 00:06:31;;;;;;;61.60;38.28;;;;;;;10.43;76.47;99846.41;5092440;28;20097;-77
2022/04/22 00:08:56;;;;;;;65.93;38.75;;;;;;;10.41;76.05;99849.72;5075732;28;20067;-78
2022/04/22 00:11:30;;;;;;;59.70;38.20;;;;;;;10.39;76.11;99847.38;5075876;28;20358;-78
2022/04/22 00:14:00;;;;;;;61.38;36.75;;;;;;;10.33;76.01;99843.66;5093321;28;20492;-77
2022/04/22 00:16:30;;;;;;;61.83;37.55;;;;;;;10.19;75.49;99815.94;5093609;28;20089;-78
2022/04/22 00:18:56;;;;;;;56.75;34.35;;;;;;;10.27;75.66;99834.22;5075778;28;20028;-77
2022/04/22 00:21:21;;;;;;;59.00;36.22;;;;;;;10.31;75.73;99837.63;5058770;28;20353;-78
2022/04/22 00:23:49;;;;;;;57.38;35.00;;;;;;;10.26;76.00;99829.78;5058723;28;20085;-77
2022/04/22 00:26:14;;;;;;;56.47;36.42;;;;;;;10.26;75.65;99826.94;5075609;28;20024;-77
2022/04/22 00:28:39;;;;;;;59.10;36.65;;;;;;;10.29;75.94;99839.41;5093506;28;20031;-77
2022/04/22 00:31:05;;;;;;;59.58;35.03;;;;;;;10.25;75.74;99831.09;5094570;28;20024;-76
2022/04/22 00:33:30;;;;;;;64.50;38.75;;;;;;;10.30;74.97;99843.84;5097946;28;20035;-76
2022/04/22 00:35:55;;;;;;;63.13;39.05;;;;;;;10.28;75.52;99837.84;5079716;28;20035;-77
2022/04/22 00:38:21;;;;;;;59.88;36.72;;;;;;;10.26;75.79;99837.56;5097992;28;20032;-77
2022/04/22 00:40:46;;;;;;;63.38;36.45;;;;;;;10.21;76.04;99829.69;5079455;28;20426;-76
2022/04/22 00:43:15;;;;;;;60.65;35.38;;;;;;;10.25;75.46;99842.47;5062565;28;20089;-78
2022/04/22 00:45:41;;;;;;;57.60;33.50;;;;;;;10.21;75.48;99830.47;5079380;28;20030;-77
2022/04/22 00:48:06;;;;;;;66.70;36.13;;;;;;;10.15;75.70;99821.03;5079469;28;20028;-77
2022/04/22 00:50:31;;;;;;;65.32;36.70;;;;;;;10.18;76.11;99831.44;5097579;28;20038;-75
2022/04/22 00:52:57;;;;;;;62.40;37.53;;;;;;;10.11;75.96;99808.25;5079238;28;20024;-77
2022/04/22 00:55:23;;;;;;;62.78;35.55;;;;;;;10.12;76.58;99816.28;5079177;28;20085;-77
2022/04/22 00:57:49;;;;;;;66.97;36.53;;;;;;;10.10;76.52;99816.00;5079308;28;20077;-75
2022/04/22 01:00:15;;;;;;;59.78;36.53;;;;;;;10.06;76.70;99826.81;5079410;28;20111;-76
2022/04/22 01:02:40;;;;;;;64.05;36.28;;;;;;;10.04;76.40;99828.53;5097420;28;20051;-75
2022/04/22 01:10:36;;;;;;;65.78;35.08;;;;;;;9.97;75.88;99818.31;5082044;28;20070;-76
2022/04/22 01:13:01;;;;;;;64.05;36.88;;;;;;;9.93;76.36;99814.88;5062139;28;20060;-77
2022/04/22 01:15:27;;;;;;;64.60;36.63;;;;;;;9.88;77.40;99821.25;5096709;28;20048;-77
2022/04/22 01:17:52;;;;;;;65.20;39.08;;;;;;;9.81;76.72;99808.19;5062051;28;20031;-77
2022/04/22 01:20:17;;;;;;;65.07;38.08;;;;;;;9.91;76.24;99812.53;5078692;28;20035;-77
2022/04/22 01:22:43;;;;;;;72.13;40.53;;;;;;;9.87;76.41;99802.59;5112538;28;20028;-77
2022/04/22 01:25:08;;;;;;;72.63;39.95;;;;;;;9.94;76.82;99805.88;5097255;28;20027;-77
2022/04/22 01:27:34;;;;;;;74.40;41.15;;;;;;;9.90;76.95;99791.06;5096667;28;20020;-77
2022/04/22 01:30:06;;;;;;;69.47;39.72;;;;;;;9.91;76.41;99801.16;5061874;28;20056;-77
2022/04/22 01:32:31;;;;;;;69.90;38.50;;;;;;;9.90;76.78;99801.63;5061997;28;20024;-77
2022/04/22 01:34:57;;;;;;;60.08;38.53;;;;;;;9.92;76.81;99799.88;5061802;28;20069;-77
2022/04/22 01:37:23;;;;;;;67.40;38.88;;;;;;;9.94;77.00;99802.22;5096504;28;20035;-78
2022/04/22 01:39:48;;;;;;;78.10;40.55;;;;;;;9.89;76.88;99791.53;5096425;28;20460;-77
2022/04/22 01:42:14;;;;;;;70.35;40.40;;;;;;;9.86;77.01;99793.31;5095735;28;20028;-76
2022/04/22 01:44:39;;;;;;;68.90;40.60;;;;;;;9.84;77.36;99789.34;5060883;28;20131;-76
2022/04/22 01:47:05;;;;;;;75.88;42.53;;;;;;;9.81;77.91;99785.44;5095009;28;20107;-78
2022/04/22 01:49:30;;;;;;;81.00;44.88;;;;;;;9.73;78.15;99772.06;5096300;28;20432;-77
2022/04/22 01:51:56;;;;;;;81.20;44.08;;;;;;;9.86;77.46;99786.81;5096413;28;20036;-76
2022/04/22 01:54:21;;;;;;;81.80;43.20;;;;;;;9.76;77.22;99769.06;5078475;28;20047;-77
2022/04/22 01:56:46;;;;;;;82.05;45.47;;;;;;;9.83;77.65;99780.03;5061287;28;20460;-77
2022/04/22 01:59:12;;;;;;;80.60;45.45;;;;;;;9.75;77.53;99764.63;5096147;28;20027;-77
2022/04/22 02:01:37;;;;;;;72.90;42.80;;;;;;;9.78;78.16;99765.69;5061316;28;20364;-77
2022/04/22 02:04:03;;;;;;;79.28;45.67;;;;;;;9.76;77.17;99754.03;5078003;28;20530;-77
2022/04/22 02:06:28;;;;;;;82.20;45.83;;;;;;;9.75;77.51;99761.00;5061128;28;20502;-77
2022/04/22 02:08:54;;;;;;;80.50;45.63;;;;;;;9.77;77.86;99756.38;5095887;28;20024;-78
2022/04/22 02:11:20;;;;;;;81.55;46.42;;;;;;;9.77;77.38;99761.28;5095986;28;20024;-77
2022/04/22 02:13:45;;;;;;;81.18;46.10;;;;;;;9.59;78.10;99748.00;5095572;28;20028;-77
2022/04/22 02:16:11;;;;;;;80.28;45.85;;;;;;;9.49;79.03;99752.19;5095891;28;20035;-77
2022/04/22 02:18:37;;;;;;;83.00;47.58;;;;;;;9.46;78.79;99759.66;5094586;28;20020;-77
2022/04/22 02:21:06;;;;;;;85.57;46.92;;;;;;;9.46;78.80;99756.81;5095604;28;20460;-77
2022/04/22 02:23:32;;;;;;;84.97;48.95;;;;;;;9.42;78.97;99750.50;5060921;28;20088;-78
2022/04/22 02:25:57;;;;;;;82.68;46.70;;;;;;;9.44;79.02;99753.66;5095590;28;20513;-77
2022/04/22 02:28:33;;;;;;;95.35;49.75;;;;;;;9.52;78.83;99763.38;5060751;28;20032;-77
2022/04/22 02:31:09;;;;;;;82.10;47.55;;;;;;;9.57;79.28;99766.84;5095359;28;20024;-77
2022/04/22 02:33:36;;;;;;;87.53;48.38;;;;;;;9.52;79.18;99760.53;5060352;28;20127;-76
2022/04/22 02:36:02;;;;;;;88.03;48.50;;;;;;;9.61;78.53;99762.53;5060436;28;20388;-77
2022/04/22 02:38:28;;;;;;;81.35;48.22;;;;;;;9.62;78.67;99761.25;5060676;28;20024;-77
2022/04/22 02:46:23;;;;;;;81.43;45.63;;;;;;;9.58;79.53;99754.19;5080297;28;20048;-77
2022/04/22 02:48:48;;;;;;;82.00;46.70;;;;;;;9.64;78.68;99755.88;5077363;28;20032;-77
2022/04/22 02:51:13;;;;;;;83.32;46.17;;;;;;;9.64;78.65;99753.03;5077117;28;20043;-77
2022/04/22 02:53:39;;;;;;;89.90;46.08;;;;;;;9.69;78.16;99762.94;5094904;28;20024;-77
2022/04/22 02:56:05;;;;;;;87.28;47.95;;;;;;;9.71;78.15;99761.19;5094931;28;20028;-78
2022/04/22 02:58:30;;;;;;;84.57;46.10;;;;;;;9.68;78.01;99750.78;5076740;28;20495;-77
2022/04/22 03:00:56;;;;;;;78.43;46.42;;;;;;;9.73;78.63;99761.47;5076694;28;20028;-75
2022/04/22 03:03:22;;;;;;;80.97;47.72;;;;;;;9.72;77.67;99765.59;5076860;28;20039;-75
2022/04/22 03:05:47;;;;;;;85.35;46.90;;;;;;;9.78;78.56;99754.31;5076672;28;20070;-77
2022/04/22 03:08:13;;;;;;;84.47;45.10;;;;;;;9.79;79.08;99759.53;5076842;28;20059;-76
2022/04/22 03:10:38;;;;;;;81.57;43.15;;;;;;;9.77;78.40;99750.69;5095054;28;20115;-77
2022/04/22 03:13:04;;;;;;;80.63;44.08;;;;;;;9.75;78.17;99750.41;5076385;28;20513;-78
2022/04/22 03:15:30;;;;;;;80.72;46.35;;;;;;;9.76;78.65;99749.16;5095033;28;20132;-78
2022/04/22 03:17:55;;;;;;;80.32;45.50;;;;;;;9.80;78.12;99748.94;5078195;28;20520;-78
2022/04/22 03:20:20;;;;;;;78.57;45.45;;;;;;;9.76;78.35;99746.31;5077507;28;20510;-78
2022/04/22 03:22:46;;;;;;;86.05;44.47;;;;;;;9.74;78.46;99746.00;5094607;28;20081;-76
2022/04/22 03:25:11;;;;;;;82.18;49.50;;;;;;;9.72;78.10;99739.22;5076760;28;20030;-76
2022/04/22 03:27:36;;;;;;;92.13;50.35;;;;;;;9.73;78.44;99741.56;5094655;28;20102;-77
2022/04/22 03:30:03;;;;;;;89.10;50.13;;;;;;;9.75;77.99;99749.63;5076225;28;20456;-77
2022/04/22 03:32:29;;;;;;;88.53;49.67;;;;;;;9.69;78.17;99737.34;5094579;28;20483;-77
2022/04/22 03:34:54;;;;;;;87.72;48.78;;;;;;;9.72;78.05;99750.59;5094477;28;20020;-77
2022/04/22 03:37:19;;;;;;;76.95;45.38;;;;;;;9.66;78.68;99741.97;5094825;28;20067;-78
2022/04/22 03:39:45;;;;;;;83.88;46.58;;;;;;;9.72;78.09;99750.59;5094319;28;20036;-78
2022/04/22 03:42:10;;;;;;;93.28;46.53;;;;;;;9.68;78.14;99750.78;5059269;28;20027;-78
2022/04/22 03:44:36;;;;;;;80.38;46.17;;;;;;;9.63;78.29;99745.75;5076023;28;20024;-78
2022/04/22 03:47:03;;;;;;;83.43;47.28;;;;;;;9.65;78.74;99746.06;5059396;28;20028;-78
2022/04/22 03:49:29;;;;;;;83.00;46.33;;;;;;;9.63;78.69;99745.75;5093356;28;20031;-76
2022/04/22 03:51:54;;;;;;;78.63;46.35;;;;;;;9.65;78.86;99742.44;5091755;28;20024;-77
2022/04/22 03:54:22;;;;;;;81.63;45.13;;;;;;;9.65;78.73;99731.06;5091854;28;20023;-76
2022/04/22 03:59:32;;;;;;;80.97;45.05;;;;;;;9.64;78.33;99735.19;5076560;28;20035;-76
2022/04/22 04:01:57;;;;;;;73.63;41.42;;;;;;;9.65;78.72;99737.53;5091813;28;20032;-77
2022/04/22 04:04:23;;;;;;;81.00;45.17;;;;;;;9.69;78.77;99743.03;5073776;28;20483;-77
2022/04/22 04:06:48;;;;;;;80.45;44.00;;;;;;;9.71;79.40;99737.66;5057552;28;20470;-77
2022/04/22 04:17:26;;;;;;;74.43;43.38;;;;;;;9.79;78.71;99736.78;5093587;28;20035;-76
2022/04/22 04:25:20;;;;;;;69.97;40.80;;;;;;;9.95;78.16;99727.78;5078452;28;20093;-76
2022/04/22 04:27:48;;;;;;;71.13;41.40;;;;;;;10.04;78.49;99721.22;5093603;28;20024;-77
2022/04/22 04:30:13;;;;;;;73.30;41.42;;;;;;;10.14;78.05;99730.44;5075711;28;20418;-79
2022/04/22 04:32:38;;;;;;;74.22;40.63;;;;;;;10.21;77.25;99733.69;5054889;28;20041;-77
2022/04/22 04:35:05;;;;;;;71.18;39.75;;;;;;;10.26;76.76;99726.56;5075459;28;20028;-77
2022/04/22 04:37:38;;;;;;;73.03;39.78;;;;;;;10.17;76.44;99709.56;5075306;28;20077;-78
2022/04/22 04:40:05;;;;;;;65.00;37.47;;;;;;;10.36;76.88;99737.31;5075479;28;20424;-77
2022/04/22 04:42:31;;;;;;;63.97;38.38;;;;;;;10.44;76.85;99739.78;5058620;28;20028;-76
2022/04/22 04:44:57;;;;;;;67.68;39.65;;;;;;;10.44;76.24;99737.72;5093048;28;20024;-78
2022/04/22 04:47:23;;;;;;;65.22;39.25;;;;;;;10.44;76.15;99725.56;5092970;28;20034;-77
2022/04/22 04:49:49;;;;;;;63.47;37.97;;;;;;;10.48;75.33;99715.53;5093401;28;20031;-77
2022/04/22 04:52:15;;;;;;;66.50;38.95;;;;;;;10.55;75.74;99718.00;5093633;28;20035;-77
2022/04/22 04:54:41;;;;;;;66.70;37.33;;;;;;;10.58;75.78;99716.19;5093572;28;20439;-77
2022/04/22 04:57:07;;;;;;;65.45;36.97;;;;;;;10.61;75.61;99718.84;5075289;28;20460;-78
2022/04/22 04:59:32;;;;;;;63.22;36.50;;;;;;;10.63;74.97;99715.50;5058282;28;20054;-77
2022/04/22 05:01:59;;;;;;;65.70;37.45;;;;;;;10.63;75.69;99718.34;5074970;28;20502;-78
2022/04/22 05:04:26;;;;;;;63.95;38.58;;;;;;;10.49;75.59;99682.16;5058589;28;20067;-79
2022/04/22 05:06:52;;;;;;;68.05;37.40;;;;;;;10.69;75.09;99716.38;5074849;28;20028;-79
2022/04/22 05:09:20;;;;;;;63.15;35.03;;;;;;;10.71;75.51;99713.81;5058338;28;20024;-80
2022/04/22 05:11:45;;;;;;;63.15;36.92;;;;;;;10.74;75.11;99707.13;5074292;28;20042;-78
2022/04/22 05:14:13;;;;;;;64.88;35.20;;;;;;;10.81;74.80;99715.25;5054531;28;20127;-77
2022/04/22 05:16:38;;;;;;;54.80;34.17;;;;;;;10.81;74.49;99718.09;5054917;28;20036;-80
2022/04/22 05:19:04;;;;;;;68.82;39.45;;;;;;;10.75;74.35;99718.03;5076448;28;20404;-79
2022/04/22 05:21:29;;;;;;;64.13;36.78;;;;;;;10.70;74.53;99715.91;5058482;28;20032;-79
2022/04/22 05:23:55;;;;;;;60.15;35.42;;;;;;;10.72;74.72;99729.63;5074346;28;20499;-80
2022/04/22 05:26:24;;;;;;;59.88;34.28;;;;;;;10.66;74.55;99717.34;5058291;28;20035;-81
2022/04/22 05:28:49;;;;;;;59.50;34.08;;;;;;;10.70;74.40;99721.59;5076316;28;20170;-81
2022/04/22 05:34:00;;;;;;;61.15;35.05;;;;;;;10.73;74.84;99720.59;5076128;28;20591;-80
2022/04/22 05:36:25;;;;;;;59.33;33.90;;;;;;;10.81;74.10;99718.88;5057772;28;20059;-81
2022/04/22 05:38:52;;;;;;;61.53;35.40;;;;;;;10.85;74.51;99723.63;5056313;28;20111;-82
2022/04/22 05:41:18;;;;;;;59.60;33.75;;;;;;;10.96;74.07;99718.84;5056650;28;20384;-79
2022/04/22 05:43:43;;;;;;;56.30;33.00;;;;;;;11.04;73.81;99720.03;5056572;28;20427;-78
2022/04/22 05:46:09;;;;;;;62.13;33.40;;;;;;;11.11;73.87;99722.44;5039912;28;20455;-79
2022/04/22 05:48:34;;;;;;;59.50;35.00;;;;;;;11.20;73.35;99716.59;5056685;28;20028;-78
2022/04/22 05:50:59;;;;;;;55.97;31.75;;;;;;;11.32;73.01;99714.69;5074342;28;20299;-79
2022/04/22 05:53:25;;;;;;;59.00;33.88;;;;;;;11.40;72.77;99704.41;5057630;28;20526;-80
2022/04/22 05:55:50;;;;;;;59.30;35.50;;;;;;;11.57;72.07;99713.97;5076020;28;20031;-77
2022/04/22 05:58:15;;;;;;;69.55;33.40;;;;;;;11.65;71.92;99700.03;5041270;28;20532;-77
2022/04/22 06:00:41;;;;;;;55.20;32.50;;;;;;;11.86;71.33;99712.22;5041009;28;20028;-78
2022/04/22 06:03:07;;;;;;;73.38;38.70;;;;;;;11.99;70.86;99706.91;5057867;28;20078;-78
2022/04/22 06:05:32;;;;;;;78.97;39.22;;;;;;;12.20;70.24;99710.50;5057089;28;20024;-77
2022/04/22 06:10:49;;;;;;;77.25;40.72;;;;;;;12.63;68.81;99705.69;5060557;28;20097;-79
2022/04/22 06:13:14;;;;;;;72.50;38.97;;;;;;;12.74;68.16;99697.94;5056769;28;20025;-79
2022/04/22 06:15:39;;;;;;;60.13;36.20;;;;;;;13.02;67.76;99709.59;5057407;28;20404;-79
2022/04/22 06:18:05;;;;;;;61.58;35.92;;;;;;;13.29;66.70;99703.25;5077664;28;20487;-80
2022/04/22 06:20:31;;;;;;;51.13;32.88;;;;;;;13.57;65.62;99709.06;5077220;28;20024;-76
2022/04/22 06:22:57;;;;;;;55.63;32.45;;;;;;;13.84;65.13;99711.25;5077523;28;20028;-77
2022/04/22 06:25:23;;;;;;;56.05;31.23;;;;;;;13.90;63.02;99710.50;5077609;28;20031;-76
2022/04/22 06:27:48;;;;;;;56.65;32.72;;;;;;;14.04;63.77;99710.28;5060653;28;20028;-75
2022/04/22 06:30:19;;;;;;;56.03;32.13;;;;;;;14.19;63.46;99710.81;5093339;28;20076;-77
2022/04/22 06:32:46;;;;;;;51.45;31.90;;;;;;;14.21;62.52;99705.34;5077264;28;20036;-76
2022/04/22 06:35:13;;;;;;;52.15;33.20;;;;;;;14.13;63.08;99706.38;5095197;28;20116;-76
2022/04/22 06:37:41;;;;;;;53.10;33.83;;;;;;;14.08;61.54;99681.38;5060369;28;20024;-76
2022/04/22 06:45:48;;;;;;;56.75;34.92;;;;;;;14.40;61.27;99717.13;5079875;28;20058;-76
2022/04/22 06:48:19;;;;;;;65.32;35.65;;;;;;;14.67;61.35;99710.59;5061512;28;20125;-74
2022/04/22 06:50:49;;;;;;;74.93;36.47;;;;;;;14.89;60.49;99714.75;5094783;28;20039;-75
2022/04/22 06:53:19;;;;;;;72.97;37.25;;;;;;;15.10;61.03;99718.88;5094825;28;20024;-76
2022/04/22 06:55:46;;;;;;;69.78;35.35;;;;;;;15.67;59.85;99698.09;5092012;28;20684;-77
2022/04/22 06:58:14;;;;;;;60.38;36.97;;;;;;;16.04;58.26;99700.50;5089821;28;20048;-76
2022/04/22 07:00:40;;;;;;;58.97;36.35;;;;;;;16.20;56.61;99699.59;5075434;28;20439;-76
2022/04/22 07:03:07;;;;;;;70.22;35.17;;;;;;;16.55;57.19;99690.19;5073507;28;20050;-77
2022/04/22 07:05:34;;;;;;;57.50;36.00;;;;;;;16.72;56.59;99690.09;5086284;28;20085;-76
2022/04/22 07:08:02;;;;;;;59.65;36.90;;;;;;;16.82;56.27;99685.53;5048103;28;20042;-75
2022/04/22 07:10:28;;;;;;;58.40;35.75;;;;;;;17.36;54.33;99690.44;5067836;28;20063;-74
2022/04/22 07:12:56;;;;;;;63.10;37.70;;;;;;;17.51;52.92;99693.66;5074952;28;20424;-75
2022/04/22 07:15:22;;;;;;;53.58;36.80;;;;;;;17.53;53.90;99694.66;5085286;28;20055;-74
2022/04/22 07:17:47;;;;;;;58.78;36.63;;;;;;;17.74;53.30;99694.97;5065901;28;20036;-75
2022/04/22 07:20:13;;;;;;;79.97;39.53;;;;;;;17.37;53.54;99694.88;5064113;28;20025;-75
2022/04/22 07:22:40;;;;;;;62.25;36.80;;;;;;;17.79;53.62;99690.44;5061956;28;20036;-76
2022/04/22 07:25:07;;;;;;;54.67;36.53;;;;;;;17.89;52.12;99685.84;5055632;28;20100;-75
2022/04/22 07:27:41;;;;;;;51.47;33.95;;;;;;;17.87;50.97;99694.25;5055848;28;20127;-75
2022/04/22 07:30:11;;;;;;;55.20;33.65;;;;;;;17.66;50.59;99691.16;5055817;28;20536;-74
2022/04/22 07:32:40;;;;;;;45.13;32.83;;;;;;;17.46;51.09;99697.41;5056537;28;20098;-76
2022/04/22 07:35:13;;;;;;;44.90;31.95;;;;;;;17.52;51.13;99698.09;5081680;28;20066;-77
2022/04/22 07:37:47;;;;;;;41.45;30.10;;;;;;;17.51;50.77;99705.97;5064200;28;20046;-76
2022/04/22 07:40:14;;;;;;;48.33;31.95;;;;;;;17.10;51.47;99711.94;5079943;28;20051;-75
2022/04/22 07:46:46;;;;;;;50.17;32.78;;;;;;;16.71;52.38;99712.31;5082108;28;20028;-75
2022/04/22 07:48:17;;;;;;;52.03;29.88;;;;;;;16.14;52.69;99716.09;5083077;28;20039;-76
2022/04/22 07:50:43;;;;;;;53.42;30.02;;;;;;;15.93;53.50;99714.94;5065269;28;20021;-74
2022/04/22 07:53:09;;;;;;;54.55;33.38;;;;;;;15.61;54.26;99728.13;5083796;28;20039;-74
2022/04/22 07:55:34;;;;;;;44.15;31.48;;;;;;;15.22;55.88;99722.50;5058881;28;20024;-75
2022/04/22 07:57:59;;;;;;;45.70;31.73;;;;;;;15.40;56.51;99716.97;5075616;28;20058;-77
2022/04/22 08:00:26;;;;;;;41.58;27.50;;;;;;;16.13;54.06;99708.81;5075515;28;20074;-76
2022/04/22 08:02:51;;;;;;;41.33;26.92;;;;;;;16.54;51.37;99705.88;5093686;28;20384;-75
2022/04/22 08:05:16;;;;;;;46.00;25.88;;;;;;;16.56;51.42;99708.22;5074720;28;20471;-75
2022/04/22 08:07:42;;;;;;;36.00;24.52;;;;;;;16.69;51.21;99708.41;5064254;28;20031;-75
2022/04/22 08:10:07;;;;;;;31.35;22.35;;;;;;;17.03;49.47;99706.75;5087326;28;20028;-75
2022/04/22 08:12:33;;;;;;;31.35;21.60;;;;;;;17.11;49.11;99706.94;5081159;28;20025;-75
2022/04/22 08:14:59;;;;;;;34.63;23.08;;;;;;;17.32;48.07;99705.13;5072953;28;20048;-75
2022/04/22 08:17:25;;;;;;;31.80;21.00;;;;;;;17.53;48.28;99708.28;5071315;28;20401;-75
2022/04/22 08:19:50;;;;;;;31.95;20.98;;;;;;;17.82;46.71;99715.28;5073427;28;20028;-76
2022/04/22 08:22:17;;;;;;;26.73;19.83;;;;;;;17.83;47.05;99683.06;5073036;28;20434;-75
2022/04/22 08:24:43;;;;;;;27.58;18.52;;;;;;;18.38;45.80;99716.03;5072905;28;20039;-76
2022/04/22 08:27:09;;;;;;;23.05;16.67;;;;;;;18.65;43.12;99716.19;5071905;28;20021;-74
2022/04/22 08:29:35;;;;;;;23.40;18.27;;;;;;;18.46;44.97;99710.41;5054746;28;20039;-75
2022/04/22 08:32:00;;;;;;;28.75;18.52;;;;;;;18.34;45.14;99706.16;5054368;28;20029;-75
2022/04/22 08:34:25;;;;;;;27.33;19.67;;;;;;;18.08;45.84;99727.75;5072803;28;20033;-75
2022/04/22 08:36:51;;;;;;;29.35;19.58;;;;;;;17.55;45.59;99725.81;5072952;28;20027;-76
2022/04/22 08:39:16;;;;;;;28.63;18.17;;;;;;;16.68;47.95;99726.97;5073202;28;20159;-75
2022/04/22 08:41:42;;;;;;;27.52;20.38;;;;;;;16.14;49.40;99724.72;5054818;28;20020;-76
2022/04/22 08:44:10;;;;;;;27.88;18.95;;;;;;;15.79;50.21;99733.25;5074812;28;20483;-77
2022/04/22 08:52:04;;;;;;;27.95;18.63;;;;;;;15.20;52.18;99743.09;5092750;28;20453;-76
2022/04/22 08:54:30;;;;;;;32.00;20.38;;;;;;;15.45;51.37;99742.00;5080274;28;20473;-74
2022/04/22 08:56:55;;;;;;;33.33;21.48;;;;;;;15.49;52.01;99739.63;5098461;28;20028;-75
2022/04/22 08:59:20;;;;;;;29.25;21.15;;;;;;;16.11;50.53;99725.00;5097736;28;20023;-75
2022/04/22 09:01:46;;;;;;;48.25;22.75;;;;;;;16.32;49.90;99720.44;5117242;28;20043;-75
2022/04/22 09:04:11;;;;;;;27.85;19.52;;;;;;;16.66;49.32;99716.00;5099336;28;20027;-75
2022/04/22 09:06:37;;;;;;;38.22;22.05;;;;;;;17.12;47.92;99715.03;5117596;28;20188;-75
2022/04/22 09:09:06;;;;;;;30.80;21.80;;;;;;;17.38;46.91;99720.25;5082122;28;20131;-75
2022/04/22 09:11:37;;;;;;;28.08;22.20;;;;;;;17.15;46.87;99713.19;5080329;28;20392;-77
2022/04/22 09:14:02;;;;;;;30.30;22.05;;;;;;;16.76;48.29;99722.97;5096475;28;20097;-75
2022/04/22 09:16:27;;;;;;;30.17;21.60;;;;;;;16.54;48.76;99723.13;5096881;28;20032;-74
2022/04/22 09:19:01;;;;;;;29.85;21.42;;;;;;;16.49;49.29;99721.06;5097458;28;20020;-75
2022/04/22 09:21:27;;;;;;;32.00;22.20;;;;;;;16.28;49.91;99723.56;5116077;28;20031;-75
2022/04/22 09:23:53;;;;;;;33.22;22.20;;;;;;;16.49;49.21;99717.41;5115333;28;20023;-75
2022/04/22 09:26:36;;;;;;;29.83;23.17;;;;;;;17.02;48.51;99713.81;5098084;28;20525;-75
2022/04/22 09:29:05;;;;;;;34.92;23.17;;;;;;;17.50;47.61;99697.88;5081735;28;20028;-76
2022/04/22 09:31:44;;;;;;;30.05;23.00;;;;;;;17.99;45.93;99699.34;5098787;28;20028;-75
2022/04/22 09:34:09;;;;;;;41.90;23.77;;;;;;;17.77;45.97;99696.75;5116714;28;20333;-75
2022/04/22 09:45:06;;;;;;;33.63;23.38;;;;;;;15.69;52.23;99721.31;5116904;28;20210;-75
2022/04/22 09:47:33;;;;;;;54.00;22.15;;;;;;;15.64;52.98;99721.34;5081167;28;20118;-76
2022/04/22 09:50:05;;;;;;;45.53;21.30;;;;;;;15.78;53.04;99712.41;5116427;28;20031;-74
2022/04/22 09:52:32;;;;;;;32.35;20.40;;;;;;;15.77;52.20;99705.09;5098290;28;20380;-74
2022/04/22 09:55:07;;;;;;;34.70;21.45;;;;;;;15.89;52.45;99700.06;5116303;28;20031;-75
2022/04/22 09:57:55;;;;;;;37.40;21.58;;;;;;;16.08;52.19;99709.63;5116520;28;20194;-74
2022/04/22 10:00:21;;;;;;;36.13;17.50;;;;;;;15.90;51.28;99699.53;5116363;28;20027;-74
2022/04/22 10:02:51;;;;;;;27.33;14.90;;;;;;;16.10;51.16;99701.25;5116148;28;20483;-74
2022/04/22 10:05:26;;;;;;;26.33;14.45;;;;;;;16.28;49.76;99697.72;5096742;28;20028;-75
2022/04/22 10:07:52;;;;;;;28.77;13.88;;;;;;;16.39;49.64;99697.63;5116356;28;20026;-74
2022/04/22 10:10:19;;;;;;;24.58;13.77;;;;;;;16.34;49.96;99698.44;5081437;28;20027;-75
2022/04/22 10:12:46;;;;;;;50.42;15.50;;;;;;;16.55;50.16;99689.41;5097911;28;20024;-75
2022/04/22 10:15:12;;;;;;;20.05;13.80;;;;;;;16.86;49.39;99685.22;5097618;28;20164;-74
2022/04/22 10:17:38;;;;;;;22.00;13.75;;;;;;;16.83;48.74;99693.63;5116260;28;20059;-75
2022/04/22 10:20:06;;;;;;;21.17;12.27;;;;;;;16.56;48.96;99696.72;5081004;28;20487;-75
2022/04/22 10:22:33;;;;;;;23.10;12.27;;;;;;;16.14;50.37;99698.06;5097820;28;20023;-75
2022/04/22 10:25:01;;;;;;;17.80;12.43;;;;;;;16.26;50.64;99685.97;5115728;28;20031;-75
2022/04/22 10:27:32;;;;;;;18.15;12.45;;;;;;;16.61;50.46;99688.09;5097351;28;20024;-75
2022/04/22 10:29:59;;;;;;;36.38;12.75;;;;;;;17.01;48.92;99674.09;5115848;28;20024;-75
2022/04/22 10:32:25;;;;;;;40.70;13.32;;;;;;;17.22;48.12;99693.19;5080697;28;20020;-75
2022/04/22 10:34:57;;;;;;;52.47;15.27;;;;;;;17.39;47.80;99693.03;5097365;28;20031;-75
2022/04/22 10:37:26;;;;;;;22.65;13.48;;;;;;;17.41;47.47;99681.75;5080404;28;20028;-75
2022/04/22 10:39:54;;;;;;;21.38;12.18;;;;;;;17.43;47.52;99661.81;5097226;28;20023;-75
2022/04/22 10:42:29;;;;;;;36.13;14.15;;;;;;;17.78;46.38;99666.63;5097194;28;20475;-76
2022/04/22 10:47:41;;;;;;;25.58;15.15;;;;;;;17.95;46.30;99672.94;5100385;28;20043;-75
2022/04/22 10:50:37;;;;;;;23.83;14.82;;;;;;;17.22;47.17;99672.28;5115641;28;20028;-75
2022/04/22 10:53:08;;;;;;;22.95;14.18;;;;;;;16.73;48.90;99668.59;5115526;28;20027;-74
2022/04/22 10:55:35;;;;;;;77.18;17.90;;;;;;;16.95;49.07;99670.50;5114993;28;20076;-76
2022/04/22 10:58:12;;;;;;;23.52;13.98;;;;;;;17.38;47.51;99673.41;5115007;28;20027;-75
2022/04/22 11:00:43;;;;;;;23.05;14.95;;;;;;;17.47;46.96;99675.91;5115525;28;20209;-75
2022/04/22 11:03:16;;;;;;;27.27;14.30;;;;;;;17.20;47.60;99669.94;5097010;28;20349;-75
2022/04/22 11:06:08;;;;;;;20.33;13.30;;;;;;;17.39;47.69;99672.88;5096780;28;20046;-75
2022/04/22 11:08:39;;;;;;;29.40;15.02;;;;;;;17.14;48.10;99672.09;5091687;28;20041;-75
2022/04/22 11:11:08;;;;;;;20.13;12.90;;;;;;;17.54;47.75;99681.06;5115123;28;20049;-75
2022/04/22 11:13:38;;;;;;;24.50;15.35;;;;;;;17.50;46.47;99680.59;5096701;28;20023;-75
2022/04/22 11:16:06;;;;;;;19.15;13.45;;;;;;;17.35;47.59;99677.38;5076014;28;20036;-75
2022/04/22 11:18:33;;;;;;;21.52;13.38;;;;;;;17.20;47.85;99669.16;5094269;28;20092;-75
2022/04/22 11:21:10;;;;;;;19.20;13.77;;;;;;;16.75;48.77;99683.25;5094360;28;20384;-76
2022/04/22 11:23:44;;;;;;;22.77;14.93;;;;;;;16.57;48.75;99678.16;5094679;28;20031;-74
2022/04/22 11:26:12;;;;;;;20.27;12.88;;;;;;;16.20;50.23;99678.69;5076918;28;20020;-74
2022/04/22 11:28:39;;;;;;;19.98;14.50;;;;;;;15.99;50.00;99669.69;5094052;28;20490;-74
2022/04/22 11:31:07;;;;;;;17.08;12.65;;;;;;;16.01;50.47;99675.69;5075776;28;20028;-73
2022/04/22 11:33:55;;;;;;;23.00;13.18;;;;;;;16.22;49.88;99671.13;5094088;28;20027;-74
2022/04/22 11:36:23;;;;;;;20.08;12.98;;;;;;;16.05;49.89;99681.16;5059183;28;20068;-74
2022/04/22 11:38:50;;;;;;;18.00;12.25;;;;;;;15.68;50.66;99656.59;5059317;28;20028;-75
2022/04/22 11:41:16;;;;;;;20.73;13.48;;;;;;;15.44;51.52;99676.53;5075739;28;20048;-75
2022/04/22 11:43:43;;;;;;;18.77;13.65;;;;;;;15.05;52.59;99688.88;5075758;28;20063;-74
2022/04/22 11:46:10;;;;;;;20.45;13.30;;;;;;;14.94;53.22;99688.94;5094092;28;20430;-75
2022/04/22 11:48:44;;;;;;;23.25;14.77;;;;;;;14.90;53.71;99696.25;5076060;28;20030;-73
2022/04/22 11:51:09;;;;;;;18.25;13.20;;;;;;;14.67;54.20;99684.00;5075664;28;20086;-75
2022/04/22 11:53:34;;;;;;;17.95;13.88;;;;;;;14.52;54.66;99695.75;5075427;28;20032;-75
2022/04/22 11:56:04;;;;;;;24.30;14.75;;;;;;;14.09;56.48;99686.59;5093909;28;20028;-76
2022/04/22 11:58:29;;;;;;;18.00;13.57;;;;;;;14.28;56.12;99689.72;5058860;28;20050;-76
2022/04/22 12:06:24;;;;;;;18.27;13.30;;;;;;;14.37;55.69;99686.63;5078008;28;20503;-75
2022/04/22 12:09:00;;;;;;;20.83;14.57;;;;;;;14.20;56.95;99700.16;5075793;28;20154;-74
2022/04/22 12:11:26;;;;;;;19.60;14.40;;;;;;;14.10;56.71;99678.78;5093672;28;20126;-73
2022/04/22 12:13:52;;;;;;;23.20;14.73;;;;;;;14.22;56.80;99683.97;5075576;28;20023;-76
2022/04/22 12:16:24;;;;;;;19.60;15.77;;;;;;;14.40;56.37;99681.94;5088850;28;20467;-74
2022/04/22 12:18:51;;;;;;;21.00;13.73;;;;;;;14.72;55.41;99691.81;5078458;28;20027;-74
2022/04/22 12:21:18;;;;;;;22.60;13.25;;;;;;;14.86;54.91;99679.28;5095606;28;20468;-76
2022/04/22 12:23:45;;;;;;;21.35;13.07;;;;;;;15.09;54.00;99671.44;5095477;28;20435;-75